sensor_id;sensor_type;location;lat;lon;timestamp;P1;durP1;ratioP1;P2;durP2;ratioP2
7817;SDS011;3954;52.624;9.212;2023-04-15T00:01:04;5.27;;;4.77;;
7817;SDS011;3954;52.624;9.212;2023-04-15T00:03:30;5.03;;;4.53;;
7817;SDS011;3954;52.624;9.212;2023-04-15T00:05:58;4.70;;;4.30;;
7817;SDS011;3954;52.624;9.212;2023-04-15T00:08:24;5.87;;;5.03;;
7817;SDS011;3954;52.624;9.212;2023-04-15T00:10:50;5.23;;;4.77;;
7817;SDS011;3954;52.624;9.212;2023-04-15T00:13:16;6.47;;;5.30;;
7817;SDS011;3954;52.624;9.212;2023-04-15T00:15:43;5.70;;;4.90;;
7817;SDS011;3954;52.624;9.212;2023-04-15T00:18:09;6.17;;;5.40;;
7817;SDS011;3954;52.624;9.212;2023-04-15T00:20:35;5.77;;;5.10;;
7817;SDS011;3954;52.624;9.212;2023-04-15T00:23:01;7.00;;;6.33;;
7817;SDS011;3954;52.624;9.212;2023-04-15T00:25:28;5.77;;;5.20;;
7817;SDS011;3954;52.624;9.212;2023-04-15T00:27:54;5.40;;;4.60;;
7817;SDS011;3954;52.624;9.212;2023-04-15T00:30:20;5.37;;;4.87;;
7817;SDS011;3954;52.624;9.212;2023-04-15T00:32:47;6.57;;;5.40;;
7817;SDS011;3954;52.624;9.212;2023-04-15T00:35:13;5.23;;;4.73;;
7817;SDS011;3954;52.624;9.212;2023-04-15T00:37:39;5.63;;;4.90;;
7817;SDS011;3954;52.624;9.212;2023-04-15T00:40:07;6.03;;;5.53;;
7817;SDS011;3954;52.624;9.212;2023-04-15T00:42:36;6.03;;;5.37;;
7817;SDS011;3954;52.624;9.212;2023-04-15T00:45:03;6.37;;;5.70;;
7817;SDS011;3954;52.624;9.212;2023-04-15T00:47:29;6.77;;;6.10;;
7817;SDS011;3954;52.624;9.212;2023-04-15T00:49:57;7.17;;;6.47;;
7817;SDS011;3954;52.624;9.212;2023-04-15T00:52:23;7.83;;;7.00;;
7817;SDS011;3954;52.624;9.212;2023-04-15T00:54:50;7.23;;;6.33;;
7817;SDS011;3954;52.624;9.212;2023-04-15T00:57:17;8.30;;;6.70;;
7817;SDS011;3954;52.624;9.212;2023-04-15T00:59:43;7.50;;;6.80;;
7817;SDS011;3954;52.624;9.212;2023-04-15T01:02:09;8.60;;;6.97;;
7817;SDS011;3954;52.624;9.212;2023-04-15T01:04:35;7.90;;;7.00;;
7817;SDS011;3954;52.624;9.212;2023-04-15T01:07:02;7.13;;;6.50;;
7817;SDS011;3954;52.624;9.212;2023-04-15T01:09:28;7.97;;;7.17;;
7817;SDS011;3954;52.624;9.212;2023-04-15T01:11:54;7.67;;;6.87;;
7817;SDS011;3954;52.624;9.212;2023-04-15T01:14:21;9.23;;;7.73;;
7817;SDS011;3954;52.624;9.212;2023-04-15T01:16:47;8.17;;;7.30;;
7817;SDS011;3954;52.624;9.212;2023-04-15T01:19:13;8.33;;;7.43;;
7817;SDS011;3954;52.624;9.212;2023-04-15T01:21:42;8.47;;;6.90;;
7817;SDS011;3954;52.624;9.212;2023-04-15T01:24:09;8.10;;;7.30;;
7817;SDS011;3954;52.624;9.212;2023-04-15T01:26:37;8.47;;;7.27;;
7817;SDS011;3954;52.624;9.212;2023-04-15T01:29:03;8.33;;;6.80;;
7817;SDS011;3954;52.624;9.212;2023-04-15T01:31:29;8.00;;;7.20;;
7817;SDS011;3954;52.624;9.212;2023-04-15T01:33:55;7.23;;;6.60;;
7817;SDS011;3954;52.624;9.212;2023-04-15T01:36:21;7.37;;;6.60;;
7817;SDS011;3954;52.624;9.212;2023-04-15T01:38:47;7.70;;;7.00;;
7817;SDS011;3954;52.624;9.212;2023-04-15T01:41:13;8.33;;;7.10;;
7817;SDS011;3954;52.624;9.212;2023-04-15T01:43:41;8.33;;;7.30;;
7817;SDS011;3954;52.624;9.212;2023-04-15T01:46:07;8.53;;;7.73;;
7817;SDS011;3954;52.624;9.212;2023-04-15T01:48:33;8.33;;;7.53;;
7817;SDS011;3954;52.624;9.212;2023-04-15T01:50:59;9.27;;;7.70;;
7817;SDS011;3954;52.624;9.212;2023-04-15T01:53:25;7.63;;;6.87;;
7817;SDS011;3954;52.624;9.212;2023-04-15T01:55:51;8.60;;;7.80;;
7817;SDS011;3954;52.624;9.212;2023-04-15T01:58:17;8.20;;;7.40;;
7817;SDS011;3954;52.624;9.212;2023-04-15T02:00:45;7.73;;;6.90;;
7817;SDS011;3954;52.624;9.212;2023-04-15T02:03:11;8.27;;;7.47;;
7817;SDS011;3954;52.624;9.212;2023-04-15T02:05:37;8.67;;;7.77;;
7817;SDS011;3954;52.624;9.212;2023-04-15T02:08:03;9.03;;;8.03;;
7817;SDS011;3954;52.624;9.212;2023-04-15T02:10:29;9.10;;;8.20;;
7817;SDS011;3954;52.624;9.212;2023-04-15T02:12:55;9.73;;;8.70;;
7817;SDS011;3954;52.624;9.212;2023-04-15T02:15:21;9.13;;;8.17;;
7817;SDS011;3954;52.624;9.212;2023-04-15T02:17:48;9.27;;;8.33;;
7817;SDS011;3954;52.624;9.212;2023-04-15T02:20:17;10.13;;;9.13;;
7817;SDS011;3954;52.624;9.212;2023-04-15T02:22:43;9.67;;;8.67;;
7817;SDS011;3954;52.624;9.212;2023-04-15T02:25:12;10.57;;;9.17;;
7817;SDS011;3954;52.624;9.212;2023-04-15T02:27:38;10.43;;;9.17;;
7817;SDS011;3954;52.624;9.212;2023-04-15T02:30:05;10.10;;;9.10;;
7817;SDS011;3954;52.624;9.212;2023-04-15T02:32:31;10.70;;;9.60;;
7817;SDS011;3954;52.624;9.212;2023-04-15T02:35:02;9.83;;;8.63;;
7817;SDS011;3954;52.624;9.212;2023-04-15T02:37:28;10.97;;;9.80;;
7817;SDS011;3954;52.624;9.212;2023-04-15T02:39:55;12.10;;;9.90;;
7817;SDS011;3954;52.624;9.212;2023-04-15T02:42:21;10.87;;;9.63;;
7817;SDS011;3954;52.624;9.212;2023-04-15T02:44:47;10.80;;;9.50;;
7817;SDS011;3954;52.624;9.212;2023-04-15T02:47:13;11.83;;;10.00;;
7817;SDS011;3954;52.624;9.212;2023-04-15T02:49:40;10.53;;;9.43;;
7817;SDS011;3954;52.624;9.212;2023-04-15T02:52:07;10.53;;;9.43;;
7817;SDS011;3954;52.624;9.212;2023-04-15T02:54:33;11.37;;;10.27;;
7817;SDS011;3954;52.624;9.212;2023-04-15T02:57:00;10.87;;;9.83;;
7817;SDS011;3954;52.624;9.212;2023-04-15T02:59:26;10.73;;;9.63;;
7817;SDS011;3954;52.624;9.212;2023-04-15T03:01:52;12.27;;;10.70;;
7817;SDS011;3954;52.624;9.212;2023-04-15T03:04:19;11.47;;;9.77;;
7817;SDS011;3954;52.624;9.212;2023-04-15T03:06:45;12.63;;;11.33;;
7817;SDS011;3954;52.624;9.212;2023-04-15T03:09:12;12.67;;;11.17;;
7817;SDS011;3954;52.624;9.212;2023-04-15T03:11:38;11.93;;;10.63;;
7817;SDS011;3954;52.624;9.212;2023-04-15T03:14:06;11.80;;;10.70;;
7817;SDS011;3954;52.624;9.212;2023-04-15T03:16:32;11.87;;;10.63;;
7817;SDS011;3954;52.624;9.212;2023-04-15T03:18:57;12.67;;;11.10;;
7817;SDS011;3954;52.624;9.212;2023-04-15T03:21:23;12.10;;;10.63;;
7817;SDS011;3954;52.624;9.212;2023-04-15T03:23:49;12.97;;;11.40;;
7817;SDS011;3954;52.624;9.212;2023-04-15T03:26:26;12.23;;;10.97;;
7817;SDS011;3954;52.624;9.212;2023-04-15T03:28:53;12.53;;;11.23;;
7817;SDS011;3954;52.624;9.212;2023-04-15T03:31:19;12.87;;;11.57;;
7817;SDS011;3954;52.624;9.212;2023-04-15T03:33:45;12.37;;;10.53;;
7817;SDS011;3954;52.624;9.212;2023-04-15T03:36:11;13.07;;;11.30;;
7817;SDS011;3954;52.624;9.212;2023-04-15T03:38:37;11.77;;;10.57;;
7817;SDS011;3954;52.624;9.212;2023-04-15T03:41:03;12.50;;;11.03;;
7817;SDS011;3954;52.624;9.212;2023-04-15T03:43:30;11.53;;;10.33;;
7817;SDS011;3954;52.624;9.212;2023-04-15T03:45:56;12.83;;;11.43;;
7817;SDS011;3954;52.624;9.212;2023-04-15T03:48:22;13.50;;;11.03;;
7817;SDS011;3954;52.624;9.212;2023-04-15T03:50:48;12.23;;;11.00;;
7817;SDS011;3954;52.624;9.212;2023-04-15T03:53:14;12.50;;;11.00;;
7817;SDS011;3954;52.624;9.212;2023-04-15T03:55:40;12.27;;;11.00;;
7817;SDS011;3954;52.624;9.212;2023-04-15T03:58:07;12.33;;;11.00;;
7817;SDS011;3954;52.624;9.212;2023-04-15T04:00:38;13.30;;;11.30;;
7817;SDS011;3954;52.624;9.212;2023-04-15T04:03:04;12.13;;;10.93;;
7817;SDS011;3954;52.624;9.212;2023-04-15T04:05:30;13.07;;;11.47;;
7817;SDS011;3954;52.624;9.212;2023-04-15T04:07:56;12.27;;;10.97;;
7817;SDS011;3954;52.624;9.212;2023-04-15T04:10:22;12.33;;;11.03;;
7817;SDS011;3954;52.624;9.212;2023-04-15T04:12:48;12.20;;;11.00;;
7817;SDS011;3954;52.624;9.212;2023-04-15T04:15:14;11.80;;;10.60;;
7817;SDS011;3954;52.624;9.212;2023-04-15T04:17:41;11.70;;;10.50;;
7817;SDS011;3954;52.624;9.212;2023-04-15T04:20:08;11.93;;;10.33;;
7817;SDS011;3954;52.624;9.212;2023-04-15T04:22:36;11.73;;;10.53;;
7817;SDS011;3954;52.624;9.212;2023-04-15T04:25:02;12.70;;;11.17;;
7817;SDS011;3954;52.624;9.212;2023-04-15T04:27:28;11.47;;;10.17;;
7817;SDS011;3954;52.624;9.212;2023-04-15T04:29:54;12.63;;;11.33;;
7817;SDS011;3954;52.624;9.212;2023-04-15T04:32:20;11.97;;;10.60;;
7817;SDS011;3954;52.624;9.212;2023-04-15T04:34:48;12.60;;;11.20;;
7817;SDS011;3954;52.624;9.212;2023-04-15T04:37:14;11.90;;;10.60;;
7817;SDS011;3954;52.624;9.212;2023-04-15T04:39:40;11.03;;;9.17;;
7817;SDS011;3954;52.624;9.212;2023-04-15T04:42:06;11.20;;;10.00;;
7817;SDS011;3954;52.624;9.212;2023-04-15T04:44:32;12.07;;;10.73;;
7817;SDS011;3954;52.624;9.212;2023-04-15T04:46:58;11.27;;;10.13;;
7817;SDS011;3954;52.624;9.212;2023-04-15T04:49:24;11.17;;;9.97;;
7817;SDS011;3954;52.624;9.212;2023-04-15T04:51:51;11.57;;;10.37;;
7817;SDS011;3954;52.624;9.212;2023-04-15T04:54:17;11.00;;;9.90;;
7817;SDS011;3954;52.624;9.212;2023-04-15T04:56:43;11.60;;;10.30;;
7817;SDS011;3954;52.624;9.212;2023-04-15T04:59:09;11.67;;;10.47;;
7817;SDS011;3954;52.624;9.212;2023-04-15T05:01:35;11.20;;;10.07;;
7817;SDS011;3954;52.624;9.212;2023-04-15T05:04:01;10.47;;;9.37;;
7817;SDS011;3954;52.624;9.212;2023-04-15T05:06:28;10.53;;;9.13;;
7817;SDS011;3954;52.624;9.212;2023-04-15T05:08:56;11.17;;;9.43;;
7817;SDS011;3954;52.624;9.212;2023-04-15T05:11:22;11.93;;;10.07;;
7817;SDS011;3954;52.624;9.212;2023-04-15T05:13:48;11.20;;;9.60;;
7817;SDS011;3954;52.624;9.212;2023-04-15T05:16:14;11.20;;;9.90;;
7817;SDS011;3954;52.624;9.212;2023-04-15T05:18:41;11.30;;;10.10;;
7817;SDS011;3954;52.624;9.212;2023-04-15T05:21:07;12.90;;;10.70;;
7817;SDS011;3954;52.624;9.212;2023-04-15T05:23:33;11.60;;;9.50;;
7817;SDS011;3954;52.624;9.212;2023-04-15T05:26:00;10.07;;;9.00;;
7817;SDS011;3954;52.624;9.212;2023-04-15T05:28:26;9.90;;;8.90;;
7817;SDS011;3954;52.624;9.212;2023-04-15T05:30:52;10.20;;;9.07;;
7817;SDS011;3954;52.624;9.212;2023-04-15T05:33:19;11.57;;;9.03;;
7817;SDS011;3954;52.624;9.212;2023-04-15T05:35:45;11.47;;;10.27;;
7817;SDS011;3954;52.624;9.212;2023-04-15T05:38:10;11.93;;;9.37;;
7817;SDS011;3954;52.624;9.212;2023-04-15T05:40:37;11.17;;;10.07;;
7817;SDS011;3954;52.624;9.212;2023-04-15T05:43:04;12.03;;;10.23;;
7817;SDS011;3954;52.624;9.212;2023-04-15T05:45:30;12.50;;;11.20;;
7817;SDS011;3954;52.624;9.212;2023-04-15T05:47:56;11.67;;;10.47;;
7817;SDS011;3954;52.624;9.212;2023-04-15T05:50:22;11.67;;;10.47;;
7817;SDS011;3954;52.624;9.212;2023-04-15T05:52:48;12.03;;;10.73;;
7817;SDS011;3954;52.624;9.212;2023-04-15T05:55:14;12.37;;;10.23;;
7817;SDS011;3954;52.624;9.212;2023-04-15T05:57:40;13.10;;;10.83;;
7817;SDS011;3954;52.624;9.212;2023-04-15T06:00:08;14.00;;;11.53;;
7817;SDS011;3954;52.624;9.212;2023-04-15T06:02:34;13.07;;;11.73;;
7817;SDS011;3954;52.624;9.212;2023-04-15T06:05:01;13.60;;;11.03;;
7817;SDS011;3954;52.624;9.212;2023-04-15T06:07:27;13.53;;;12.13;;
7817;SDS011;3954;52.624;9.212;2023-04-15T06:09:53;13.10;;;10.80;;
7817;SDS011;3954;52.624;9.212;2023-04-15T06:12:19;14.67;;;11.23;;
7817;SDS011;3954;52.624;9.212;2023-04-15T06:14:45;12.63;;;11.20;;
7817;SDS011;3954;52.624;9.212;2023-04-15T06:17:13;13.53;;;11.77;;
7817;SDS011;3954;52.624;9.212;2023-04-15T06:19:39;12.03;;;10.73;;
7817;SDS011;3954;52.624;9.212;2023-04-15T06:22:05;12.40;;;11.03;;
7817;SDS011;3954;52.624;9.212;2023-04-15T06:24:31;14.63;;;12.13;;
7817;SDS011;3954;52.624;9.212;2023-04-15T06:26:57;12.93;;;10.90;;
7817;SDS011;3954;52.624;9.212;2023-04-15T06:29:23;11.23;;;10.03;;
7817;SDS011;3954;52.624;9.212;2023-04-15T06:31:49;11.60;;;10.03;;
7817;SDS011;3954;52.624;9.212;2023-04-15T06:34:17;9.80;;;8.80;;
7817;SDS011;3954;52.624;9.212;2023-04-15T06:36:43;9.67;;;8.70;;
7817;SDS011;3954;52.624;9.212;2023-04-15T06:39:09;9.30;;;8.23;;
7817;SDS011;3954;52.624;9.212;2023-04-15T06:41:35;10.00;;;8.63;;
7817;SDS011;3954;52.624;9.212;2023-04-15T06:44:01;9.30;;;8.40;;
7817;SDS011;3954;52.624;9.212;2023-04-15T06:46:27;9.97;;;8.97;;
7817;SDS011;3954;52.624;9.212;2023-04-15T06:48:53;8.73;;;7.80;;
7817;SDS011;3954;52.624;9.212;2023-04-15T06:51:20;9.10;;;8.20;;
7817;SDS011;3954;52.624;9.212;2023-04-15T06:53:47;9.30;;;8.17;;
7817;SDS011;3954;52.624;9.212;2023-04-15T06:56:14;8.23;;;7.43;;
7817;SDS011;3954;52.624;9.212;2023-04-15T06:58:40;9.33;;;8.10;;
7817;SDS011;3954;52.624;9.212;2023-04-15T07:01:06;8.73;;;7.83;;
7817;SDS011;3954;52.624;9.212;2023-04-15T07:03:32;7.93;;;7.10;;
7817;SDS011;3954;52.624;9.212;2023-04-15T07:05:58;8.57;;;7.77;;
7817;SDS011;3954;52.624;9.212;2023-04-15T07:08:27;8.77;;;7.87;;
7817;SDS011;3954;52.624;9.212;2023-04-15T07:10:52;9.50;;;8.47;;
7817;SDS011;3954;52.624;9.212;2023-04-15T07:13:19;9.47;;;8.50;;
7817;SDS011;3954;52.624;9.212;2023-04-15T07:15:45;9.53;;;8.60;;
7817;SDS011;3954;52.624;9.212;2023-04-15T07:18:10;9.60;;;8.70;;
7817;SDS011;3954;52.624;9.212;2023-04-15T07:20:37;11.20;;;8.83;;
7817;SDS011;3954;52.624;9.212;2023-04-15T07:23:06;11.20;;;8.67;;
7817;SDS011;3954;52.624;9.212;2023-04-15T07:25:34;9.73;;;8.73;;
7817;SDS011;3954;52.624;9.212;2023-04-15T07:28:00;8.87;;;8.07;;
7817;SDS011;3954;52.624;9.212;2023-04-15T07:30:26;9.77;;;8.87;;
7817;SDS011;3954;52.624;9.212;2023-04-15T07:32:53;9.50;;;8.53;;
7817;SDS011;3954;52.624;9.212;2023-04-15T07:35:20;9.60;;;8.53;;
7817;SDS011;3954;52.624;9.212;2023-04-15T07:37:46;9.03;;;8.23;;
7817;SDS011;3954;52.624;9.212;2023-04-15T07:40:12;9.10;;;8.17;;
7817;SDS011;3954;52.624;9.212;2023-04-15T07:42:41;9.13;;;8.27;;
7817;SDS011;3954;52.624;9.212;2023-04-15T07:45:07;8.90;;;8.00;;
7817;SDS011;3954;52.624;9.212;2023-04-15T07:47:33;10.07;;;9.07;;
7817;SDS011;3954;52.624;9.212;2023-04-15T07:50:00;8.97;;;8.07;;
7817;SDS011;3954;52.624;9.212;2023-04-15T07:52:26;8.93;;;8.13;;
7817;SDS011;3954;52.624;9.212;2023-04-15T07:54:52;8.67;;;7.77;;
7817;SDS011;3954;52.624;9.212;2023-04-15T07:57:18;8.17;;;7.40;;
7817;SDS011;3954;52.624;9.212;2023-04-15T07:59:45;7.70;;;6.90;;
7817;SDS011;3954;52.624;9.212;2023-04-15T08:02:11;7.80;;;7.00;;
7817;SDS011;3954;52.624;9.212;2023-04-15T08:04:37;8.20;;;7.47;;
7817;SDS011;3954;52.624;9.212;2023-04-15T08:07:03;8.33;;;7.53;;
7817;SDS011;3954;52.624;9.212;2023-04-15T08:09:30;8.13;;;7.30;;
7817;SDS011;3954;52.624;9.212;2023-04-15T08:11:56;8.10;;;7.30;;
7817;SDS011;3954;52.624;9.212;2023-04-15T08:14:25;7.43;;;6.73;;
7817;SDS011;3954;52.624;9.212;2023-04-15T08:16:53;7.67;;;6.87;;
7817;SDS011;3954;52.624;9.212;2023-04-15T08:19:19;7.73;;;7.03;;
7817;SDS011;3954;52.624;9.212;2023-04-15T08:21:45;7.30;;;6.67;;
7817;SDS011;3954;52.624;9.212;2023-04-15T08:24:11;6.50;;;5.87;;
7817;SDS011;3954;52.624;9.212;2023-04-15T08:26:37;6.60;;;6.00;;
7817;SDS011;3954;52.624;9.212;2023-04-15T08:29:03;6.50;;;5.90;;
7817;SDS011;3954;52.624;9.212;2023-04-15T08:31:29;7.37;;;6.67;;
7817;SDS011;3954;52.624;9.212;2023-04-15T08:33:56;5.93;;;5.43;;
7817;SDS011;3954;52.624;9.212;2023-04-15T08:36:23;6.47;;;5.87;;
7817;SDS011;3954;52.624;9.212;2023-04-15T08:38:49;5.63;;;5.13;;
7817;SDS011;3954;52.624;9.212;2023-04-15T08:41:17;6.00;;;5.50;;
7817;SDS011;3954;52.624;9.212;2023-04-15T08:43:48;5.50;;;5.00;;
7817;SDS011;3954;52.624;9.212;2023-04-15T08:46:20;6.50;;;5.90;;
7817;SDS011;3954;52.624;9.212;2023-04-15T08:48:47;7.40;;;6.60;;
7817;SDS011;3954;52.624;9.212;2023-04-15T08:51:14;7.00;;;6.30;;
7817;SDS011;3954;52.624;9.212;2023-04-15T08:53:41;6.23;;;5.63;;
7817;SDS011;3954;52.624;9.212;2023-04-15T08:56:07;6.53;;;5.93;;
7817;SDS011;3954;52.624;9.212;2023-04-15T08:58:34;6.23;;;5.63;;
7817;SDS011;3954;52.624;9.212;2023-04-15T09:01:01;5.83;;;5.33;;
7817;SDS011;3954;52.624;9.212;2023-04-15T09:03:27;5.70;;;5.20;;
7817;SDS011;3954;52.624;9.212;2023-04-15T09:05:53;5.60;;;5.10;;
7817;SDS011;3954;52.624;9.212;2023-04-15T09:08:20;5.77;;;5.23;;
7817;SDS011;3954;52.624;9.212;2023-04-15T09:10:46;5.20;;;4.80;;
7817;SDS011;3954;52.624;9.212;2023-04-15T09:13:13;5.73;;;5.23;;
7817;SDS011;3954;52.624;9.212;2023-04-15T09:15:39;6.00;;;5.37;;
7817;SDS011;3954;52.624;9.212;2023-04-15T09:18:05;6.00;;;5.40;;
7817;SDS011;3954;52.624;9.212;2023-04-15T09:20:38;5.40;;;4.77;;
7817;SDS011;3954;52.624;9.212;2023-04-15T09:23:10;6.20;;;5.60;;
7817;SDS011;3954;52.624;9.212;2023-04-15T09:25:39;5.07;;;4.67;;
7817;SDS011;3954;52.624;9.212;2023-04-15T09:28:08;5.77;;;5.17;;
7817;SDS011;3954;52.624;9.212;2023-04-15T09:30:35;5.23;;;4.73;;
7817;SDS011;3954;52.624;9.212;2023-04-15T09:33:02;6.10;;;5.17;;
7817;SDS011;3954;52.624;9.212;2023-04-15T09:35:32;5.80;;;5.20;;
7817;SDS011;3954;52.624;9.212;2023-04-15T09:38:01;5.37;;;4.97;;
7817;SDS011;3954;52.624;9.212;2023-04-15T09:40:31;5.70;;;5.20;;
7817;SDS011;3954;52.624;9.212;2023-04-15T09:42:59;5.37;;;4.97;;
7817;SDS011;3954;52.624;9.212;2023-04-15T09:45:29;4.90;;;4.50;;
7817;SDS011;3954;52.624;9.212;2023-04-15T09:47:56;6.17;;;5.67;;
7817;SDS011;3954;52.624;9.212;2023-04-15T09:50:22;5.90;;;5.40;;
7817;SDS011;3954;52.624;9.212;2023-04-15T09:52:51;5.53;;;5.03;;
7817;SDS011;3954;52.624;9.212;2023-04-15T09:55:17;6.23;;;5.63;;
7817;SDS011;3954;52.624;9.212;2023-04-15T09:57:44;6.90;;;6.20;;
7817;SDS011;3954;52.624;9.212;2023-04-15T10:00:13;6.83;;;6.13;;
7817;SDS011;3954;52.624;9.212;2023-04-15T10:02:39;6.30;;;5.70;;
7817;SDS011;3954;52.624;9.212;2023-04-15T10:05:06;6.43;;;5.83;;
7817;SDS011;3954;52.624;9.212;2023-04-15T10:07:32;7.37;;;6.77;;
7817;SDS011;3954;52.624;9.212;2023-04-15T10:09:59;7.07;;;6.47;;
7817;SDS011;3954;52.624;9.212;2023-04-15T10:12:26;6.47;;;5.87;;
7817;SDS011;3954;52.624;9.212;2023-04-15T10:14:55;6.07;;;5.50;;
7817;SDS011;3954;52.624;9.212;2023-04-15T10:17:25;7.47;;;6.77;;
7817;SDS011;3954;52.624;9.212;2023-04-15T10:19:52;7.17;;;6.53;;
7817;SDS011;3954;52.624;9.212;2023-04-15T10:22:19;6.93;;;6.33;;
7817;SDS011;3954;52.624;9.212;2023-04-15T10:24:46;8.20;;;7.50;;
7817;SDS011;3954;52.624;9.212;2023-04-15T10:27:12;7.83;;;7.13;;
7817;SDS011;3954;52.624;9.212;2023-04-15T10:29:38;8.73;;;7.93;;
7817;SDS011;3954;52.624;9.212;2023-04-15T10:32:05;9.40;;;8.50;;
7817;SDS011;3954;52.624;9.212;2023-04-15T10:34:32;9.43;;;8.47;;
7817;SDS011;3954;52.624;9.212;2023-04-15T10:37:00;9.27;;;8.37;;
7817;SDS011;3954;52.624;9.212;2023-04-15T10:39:40;9.27;;;8.43;;
7817;SDS011;3954;52.624;9.212;2023-04-15T10:42:07;9.27;;;8.37;;
7817;SDS011;3954;52.624;9.212;2023-04-15T10:44:34;9.47;;;8.50;;
7817;SDS011;3954;52.624;9.212;2023-04-15T10:47:03;9.77;;;8.77;;
7817;SDS011;3954;52.624;9.212;2023-04-15T10:49:29;10.13;;;9.10;;
7817;SDS011;3954;52.624;9.212;2023-04-15T10:51:57;10.80;;;9.70;;
7817;SDS011;3954;52.624;9.212;2023-04-15T10:54:29;10.87;;;9.77;;
7817;SDS011;3954;52.624;9.212;2023-04-15T10:57:06;10.80;;;9.70;;
7817;SDS011;3954;52.624;9.212;2023-04-15T10:59:37;10.80;;;9.43;;
7817;SDS011;3954;52.624;9.212;2023-04-15T11:02:03;11.37;;;10.20;;
7817;SDS011;3954;52.624;9.212;2023-04-15T11:07:16;12.83;;;10.97;;
7817;SDS011;3954;52.624;9.212;2023-04-15T11:09:57;12.63;;;11.03;;
7817;SDS011;3954;52.624;9.212;2023-04-15T11:12:31;14.60;;;11.57;;
7817;SDS011;3954;52.624;9.212;2023-04-15T11:14:59;14.80;;;12.53;;
7817;SDS011;3954;52.624;9.212;2023-04-15T11:17:26;13.90;;;12.27;;
7817;SDS011;3954;52.624;9.212;2023-04-15T11:19:52;15.03;;;13.00;;
7817;SDS011;3954;52.624;9.212;2023-04-15T11:22:20;15.13;;;13.20;;
7817;SDS011;3954;52.624;9.212;2023-04-15T11:24:46;14.57;;;12.23;;
7817;SDS011;3954;52.624;9.212;2023-04-15T11:27:19;12.80;;;11.43;;
7817;SDS011;3954;52.624;9.212;2023-04-15T11:29:45;15.17;;;12.43;;
7817;SDS011;3954;52.624;9.212;2023-04-15T11:32:11;14.70;;;13.13;;
7817;SDS011;3954;52.624;9.212;2023-04-15T11:34:37;15.23;;;12.47;;
7817;SDS011;3954;52.624;9.212;2023-04-15T11:37:03;15.07;;;12.77;;
7817;SDS011;3954;52.624;9.212;2023-04-15T11:39:31;15.80;;;13.20;;
7817;SDS011;3954;52.624;9.212;2023-04-15T11:41:57;15.57;;;13.60;;
7817;SDS011;3954;52.624;9.212;2023-04-15T11:44:23;17.53;;;14.80;;
7817;SDS011;3954;52.624;9.212;2023-04-15T11:46:49;17.00;;;14.23;;
7817;SDS011;3954;52.624;9.212;2023-04-15T11:49:26;14.40;;;12.90;;
7817;SDS011;3954;52.624;9.212;2023-04-15T11:51:52;14.43;;;12.77;;
7817;SDS011;3954;52.624;9.212;2023-04-15T11:54:18;16.17;;;13.80;;
7817;SDS011;3954;52.624;9.212;2023-04-15T11:56:49;16.67;;;13.87;;
7817;SDS011;3954;52.624;9.212;2023-04-15T11:59:16;16.53;;;13.27;;
7817;SDS011;3954;52.624;9.212;2023-04-15T12:01:42;15.30;;;13.17;;
7817;SDS011;3954;52.624;9.212;2023-04-15T12:04:10;13.87;;;12.37;;
7817;SDS011;3954;52.624;9.212;2023-04-15T12:06:36;16.23;;;13.93;;
7817;SDS011;3954;52.624;9.212;2023-04-15T12:09:06;16.07;;;14.33;;
7817;SDS011;3954;52.624;9.212;2023-04-15T12:11:37;18.57;;;14.53;;
7817;SDS011;3954;52.624;9.212;2023-04-15T12:14:06;14.63;;;13.13;;
7817;SDS011;3954;52.624;9.212;2023-04-15T12:16:33;17.43;;;14.03;;
7817;SDS011;3954;52.624;9.212;2023-04-15T12:19:03;18.40;;;14.30;;
7817;SDS011;3954;52.624;9.212;2023-04-15T12:21:32;17.90;;;15.30;;
7817;SDS011;3954;52.624;9.212;2023-04-15T12:24:00;18.87;;;15.90;;
7817;SDS011;3954;52.624;9.212;2023-04-15T12:26:27;19.83;;;15.57;;
7817;SDS011;3954;52.624;9.212;2023-04-15T12:28:53;18.43;;;15.90;;
7817;SDS011;3954;52.624;9.212;2023-04-15T12:31:21;18.43;;;15.67;;
7817;SDS011;3954;52.624;9.212;2023-04-15T12:33:48;18.70;;;15.27;;
7817;SDS011;3954;52.624;9.212;2023-04-15T12:36:14;19.40;;;15.90;;
7817;SDS011;3954;52.624;9.212;2023-04-15T12:38:40;18.87;;;16.33;;
7817;SDS011;3954;52.624;9.212;2023-04-15T12:41:06;19.20;;;16.03;;
7817;SDS011;3954;52.624;9.212;2023-04-15T12:43:32;23.73;;;17.47;;
7817;SDS011;3954;52.624;9.212;2023-04-15T12:45:58;19.57;;;16.07;;
7817;SDS011;3954;52.624;9.212;2023-04-15T12:48:25;20.13;;;16.27;;
7817;SDS011;3954;52.624;9.212;2023-04-15T12:50:51;23.53;;;17.43;;
7817;SDS011;3954;52.624;9.212;2023-04-15T12:53:19;21.47;;;16.70;;
7817;SDS011;3954;52.624;9.212;2023-04-15T12:55:45;20.60;;;17.27;;
7817;SDS011;3954;52.624;9.212;2023-04-15T12:58:11;24.20;;;18.60;;
7817;SDS011;3954;52.624;9.212;2023-04-15T13:00:37;25.67;;;19.30;;
7817;SDS011;3954;52.624;9.212;2023-04-15T13:03:03;24.87;;;18.87;;
7817;SDS011;3954;52.624;9.212;2023-04-15T13:05:31;27.40;;;19.73;;
7817;SDS011;3954;52.624;9.212;2023-04-15T13:07:57;31.37;;;20.83;;
7817;SDS011;3954;52.624;9.212;2023-04-15T13:10:23;27.93;;;20.20;;
7817;SDS011;3954;52.624;9.212;2023-04-15T13:12:49;25.20;;;20.40;;
7817;SDS011;3954;52.624;9.212;2023-04-15T13:15:17;28.90;;;21.33;;
7817;SDS011;3954;52.624;9.212;2023-04-15T13:17:44;26.80;;;21.30;;
7817;SDS011;3954;52.624;9.212;2023-04-15T13:20:11;30.30;;;22.40;;
7817;SDS011;3954;52.624;9.212;2023-04-15T13:22:38;28.80;;;22.27;;
7817;SDS011;3954;52.624;9.212;2023-04-15T13:25:05;31.30;;;23.17;;
7817;SDS011;3954;52.624;9.212;2023-04-15T13:27:31;36.10;;;25.40;;
7817;SDS011;3954;52.624;9.212;2023-04-15T13:29:57;35.37;;;25.43;;
7817;SDS011;3954;52.624;9.212;2023-04-15T13:32:23;34.30;;;26.03;;
7817;SDS011;3954;52.624;9.212;2023-04-15T13:34:49;34.70;;;25.60;;
7817;SDS011;3954;52.624;9.212;2023-04-15T13:37:16;35.47;;;24.77;;
7817;SDS011;3954;52.624;9.212;2023-04-15T13:39:43;33.70;;;24.03;;
7817;SDS011;3954;52.624;9.212;2023-04-15T13:42:09;28.90;;;23.03;;
7817;SDS011;3954;52.624;9.212;2023-04-15T13:44:35;30.83;;;22.87;;
7817;SDS011;3954;52.624;9.212;2023-04-15T13:47:02;31.77;;;23.93;;
7817;SDS011;3954;52.624;9.212;2023-04-15T13:49:28;32.53;;;23.57;;
7817;SDS011;3954;52.624;9.212;2023-04-15T13:51:54;28.80;;;23.57;;
7817;SDS011;3954;52.624;9.212;2023-04-15T13:54:20;26.47;;;21.60;;
7817;SDS011;3954;52.624;9.212;2023-04-15T13:56:47;28.73;;;22.07;;
7817;SDS011;3954;52.624;9.212;2023-04-15T13:59:13;29.53;;;22.77;;
7817;SDS011;3954;52.624;9.212;2023-04-15T14:01:40;28.40;;;23.40;;
7817;SDS011;3954;52.624;9.212;2023-04-15T14:04:06;27.13;;;23.20;;
7817;SDS011;3954;52.624;9.212;2023-04-15T14:06:32;31.30;;;23.23;;
7817;SDS011;3954;52.624;9.212;2023-04-15T14:08:57;31.20;;;23.30;;
7817;SDS011;3954;52.624;9.212;2023-04-15T14:11:23;25.10;;;20.10;;
7817;SDS011;3954;52.624;9.212;2023-04-15T14:13:51;26.53;;;22.83;;
7817;SDS011;3954;52.624;9.212;2023-04-15T14:16:17;26.00;;;22.20;;
7817;SDS011;3954;52.624;9.212;2023-04-15T14:18:43;26.13;;;22.00;;
7817;SDS011;3954;52.624;9.212;2023-04-15T14:21:09;28.57;;;21.83;;
7817;SDS011;3954;52.624;9.212;2023-04-15T14:23:35;27.30;;;22.57;;
7817;SDS011;3954;52.624;9.212;2023-04-15T14:26:02;30.13;;;23.63;;
7817;SDS011;3954;52.624;9.212;2023-04-15T14:28:28;25.53;;;22.33;;
7817;SDS011;3954;52.624;9.212;2023-04-15T14:30:55;25.70;;;21.13;;
7817;SDS011;3954;52.624;9.212;2023-04-15T14:33:21;27.37;;;22.17;;
7817;SDS011;3954;52.624;9.212;2023-04-15T14:35:48;31.77;;;23.43;;
7817;SDS011;3954;52.624;9.212;2023-04-15T14:38:14;29.07;;;22.97;;
7817;SDS011;3954;52.624;9.212;2023-04-15T14:40:40;23.53;;;20.20;;
7817;SDS011;3954;52.624;9.212;2023-04-15T14:43:06;25.93;;;22.33;;
7817;SDS011;3954;52.624;9.212;2023-04-15T14:45:32;27.67;;;21.50;;
7817;SDS011;3954;52.624;9.212;2023-04-15T14:47:59;29.50;;;23.80;;
7817;SDS011;3954;52.624;9.212;2023-04-15T14:50:25;28.30;;;22.40;;
7817;SDS011;3954;52.624;9.212;2023-04-15T14:52:51;27.10;;;23.13;;
7817;SDS011;3954;52.624;9.212;2023-04-15T14:55:17;30.87;;;24.40;;
7817;SDS011;3954;52.624;9.212;2023-04-15T14:57:43;32.60;;;24.43;;
7817;SDS011;3954;52.624;9.212;2023-04-15T15:00:09;25.87;;;23.07;;